Time;durP1;ratioP1;P1;durP2;ratioP2;P2;SDS_P1;SDS_P2;PMS_P1;PMS_P2;Temp;Humidity;BMP_temperature;BMP_pressure;BME280_temperature;BME280_humidity;BME280_pressure;Samples;Min_cycle;Max_cycle;Signal;HPM_P1;HPM_P2
2023/07/14 04:22:32;;;;;;;2.20;1.75;;;;;;;14.21;100.00;100371.13;5089579;28;20393;-64
2023/07/14 04:24:58;;;;;;;3.85;2.15;;;;;;;14.19;100.00;100371.31;5089628;28;20036;-64
2023/07/14 04:27:24;;;;;;;3.55;2.20;;;;;;;14.24;100.00;100373.44;5089433;28;20499;-64
2023/07/14 04:29:50;;;;;;;2.25;1.73;;;;;;;14.27;100.00;100368.50;5089152;28;20111;-64
2023/07/14 04:32:16;;;;;;;2.83;2.00;;;;;;;14.32;100.00;100365.25;5089563;28;20119;-64
2023/07/14 04:34:41;;;;;;;3.22;1.58;;;;;;;14.36;100.00;100364.66;5089390;28;20028;-64
2023/07/14 04:37:07;;;;;;;3.83;1.92;;;;;;;14.33;100.00;100357.00;5089190;28;20473;-64
2023/07/14 04:39:32;;;;;;;4.22;1.88;;;;;;;14.46;100.00;100360.81;5088894;28;20485;-64
2023/07/14 04:41:58;;;;;;;4.03;2.30;;;;;;;14.44;100.00;100363.69;5089138;28;20095;-64
2023/07/14 04:44:24;;;;;;;2.85;1.83;;;;;;;14.52;100.00;100365.41;5089151;28;20052;-64
2023/07/14 04:46:49;;;;;;;6.20;2.92;;;;;;;14.61;100.00;100358.91;5089058;28;20040;-64
2023/07/14 04:49:15;;;;;;;7.43;3.67;;;;;;;14.64;100.00;100362.00;5088810;28;20051;-65
2023/07/14 04:51:41;;;;;;;5.20;3.40;;;;;;;14.62;100.00;100364.06;5088928;28;20090;-64
2023/07/14 04:54:07;;;;;;;3.67;2.03;;;;;;;14.64;100.00;100358.50;5088669;28;20040;-63
2023/07/14 04:56:34;;;;;;;4.90;2.42;;;;;;;14.82;100.00;100355.31;5088877;28;20489;-64
2023/07/14 04:58:59;;;;;;;2.95;2.03;;;;;;;14.99;100.00;100358.47;5087474;28;20032;-63
2023/07/14 05:01:27;;;;;;;7.22;3.28;;;;;;;15.05;100.00;100363.84;5088758;28;20041;-64
2023/07/14 05:03:53;;;;;;;2.38;1.83;;;;;;;15.17;100.00;100359.59;5088589;28;20028;-62
2023/07/14 05:06:18;;;;;;;3.42;2.17;;;;;;;15.22;100.00;100356.31;5088145;28;20022;-63
2023/07/14 05:08:44;;;;;;;3.30;2.05;;;;;;;15.35;100.00;100359.03;5088355;28;20036;-61
2023/07/14 05:11:09;;;;;;;2.67;1.80;;;;;;;15.39;100.00;100360.28;5088675;28;20067;-62
2023/07/14 05:13:35;;;;;;;5.45;2.85;;;;;;;15.49;100.00;100362.59;5088571;28;20040;-61
2023/07/14 05:16:00;;;;;;;2.78;1.80;;;;;;;15.52;100.00;100359.50;5079717;28;20044;-61
2023/07/14 05:18:25;;;;;;;4.25;2.08;;;;;;;15.58;100.00;100357.84;5068044;28;20033;-60
2023/07/14 05:20:56;;;;;;;3.63;1.92;;;;;;;15.62;100.00;100349.22;5068107;28;20374;-61
2023/07/14 05:23:22;;;;;;;3.30;2.38;;;;;;;15.73;100.00;100363.91;5068057;28;20135;-61
2023/07/14 05:25:47;;;;;;;2.30;1.80;;;;;;;15.80;100.00;100364.75;5068090;28;20063;-61
2023/07/14 05:28:12;;;;;;;3.17;1.50;;;;;;;15.91;100.00;100356.09;5067977;28;20498;-61
2023/07/14 05:30:38;;;;;;;2.70;2.00;;;;;;;15.98;100.00;100358.78;5067629;28;20098;-61
2023/07/14 05:33:04;;;;;;;4.63;1.77;;;;;;;16.02;99.25;100358.16;5059235;28;20067;-60
2023/07/14 05:35:30;;;;;;;1.80;1.60;;;;;;;16.05;95.12;100356.09;5054603;28;20079;-61
2023/07/14 05:37:56;;;;;;;1.77;1.50;;;;;;;16.09;95.19;100357.31;5054683;28;20125;-61
2023/07/14 05:40:22;;;;;;;2.92;1.63;;;;;;;16.13;95.79;100364.78;5054329;28;20033;-61
2023/07/14 05:42:47;;;;;;;2.88;1.83;;;;;;;16.21;95.84;100355.69;5054520;28;20064;-61
2023/07/14 05:45:13;;;;;;;1.83;1.45;;;;;;;16.21;94.44;100347.63;5054491;28;20037;-61
2023/07/14 05:47:43;;;;;;;3.22;1.65;;;;;;;16.28;93.31;100346.56;5054474;28;20371;-61
2023/07/14 05:50:09;;;;;;;3.30;1.83;;;;;;;16.37;93.53;100349.91;5054054;28;20543;-61
2023/07/14 05:52:34;;;;;;;2.58;1.50;;;;;;;16.44;93.47;100356.09;5054418;28;20029;-61
2023/07/14 05:55:00;;;;;;;3.30;1.70;;;;;;;16.51;93.34;100362.28;5054400;28;20060;-61
2023/07/14 05:57:25;;;;;;;2.70;1.75;;;;;;;16.62;92.59;100358.09;5054202;28;20131;-61
2023/07/14 05:59:52;;;;;;;3.28;1.40;;;;;;;16.72;90.66;100341.56;5054150;28;20065;-60
2023/07/14 06:02:18;;;;;;;3.22;1.48;;;;;;;16.81;90.86;100346.50;5054337;28;20033;-61
2023/07/14 06:04:45;;;;;;;3.38;1.40;;;;;;;16.92;88.98;100341.50;5054125;28;20043;-61
2023/07/14 06:07:12;;;;;;;2.83;1.30;;;;;;;17.00;87.51;100342.09;5054136;28;20115;-59
2023/07/14 06:09:38;;;;;;;4.05;1.88;;;;;;;17.08;88.40;100336.50;5053701;28;20559;-61
2023/07/14 06:12:05;;;;;;;2.75;1.42;;;;;;;17.16;88.02;100337.28;5053872;28;20036;-62
2023/07/14 06:14:36;;;;;;;2.70;1.50;;;;;;;17.20;87.47;100325.03;5052807;28;20048;-62
2023/07/14 06:17:03;;;;;;;1.73;1.52;;;;;;;17.31;85.70;100321.69;5053817;28;20498;-60
2023/07/14 06:19:29;;;;;;;2.95;1.75;;;;;;;17.37;85.28;100318.13;5053763;28;20078;-62
2023/07/14 06:21:55;;;;;;;2.70;1.50;;;;;;;17.48;86.40;100308.53;5053713;28;20037;-62
2023/07/14 06:24:22;;;;;;;4.05;1.48;;;;;;;17.61;85.93;100311.97;5052626;28;20378;-61
2023/07/14 06:26:48;;;;;;;2.90;1.48;;;;;;;17.74;84.58;100311.09;5053691;28;20041;-61
2023/07/14 06:29:14;;;;;;;2.63;1.50;;;;;;;17.87;85.05;100311.00;5053492;28;20098;-60
2023/07/14 06:31:39;;;;;;;3.10;1.35;;;;;;;17.95;83.44;100315.28;5053613;28;20043;-61
2023/07/14 06:34:05;;;;;;;3.85;1.52;;;;;;;17.97;83.23;100306.97;5053612;28;20029;-62
2023/07/14 06:36:30;;;;;;;3.35;1.38;;;;;;;18.03;82.87;100306.09;5052214;28;20409;-61
2023/07/14 06:38:56;;;;;;;1.98;1.33;;;;;;;18.07;82.40;100302.75;5053141;28;20048;-62
2023/07/14 06:41:21;;;;;;;2.70;1.52;;;;;;;18.14;80.98;100297.28;5053456;28;20041;-59
2023/07/14 06:43:47;;;;;;;2.95;1.58;;;;;;;18.24;81.22;100297.59;5052763;28;20033;-62
2023/07/14 06:46:12;;;;;;;5.00;1.83;;;;;;;18.36;81.16;100289.59;5053020;28;20124;-61
2023/07/14 06:48:38;;;;;;;3.75;1.63;;;;;;;18.53;80.69;100296.06;5053100;28;20040;-61
2023/07/14 06:51:03;;;;;;;4.63;2.58;;;;;;;18.63;78.52;100293.66;5053127;28;20044;-62
2023/07/14 06:53:29;;;;;;;3.25;1.88;;;;;;;18.73;78.44;100295.03;5052243;28;20033;-61
2023/07/14 06:55:54;;;;;;;1.98;1.45;;;;;;;18.83;78.44;100287.22;5053029;28;20052;-61
2023/07/14 06:58:20;;;;;;;1.85;1.42;;;;;;;18.87;77.75;100285.75;5051779;28;20127;-62
2023/07/14 07:00:45;;;;;;;3.80;1.70;;;;;;;19.00;75.94;100282.06;5053192;28;20037;-62
2023/07/14 07:03:11;;;;;;;3.35;1.42;;;;;;;19.11;77.09;100292.91;5053091;28;20037;-61
2023/07/14 07:05:43;;;;;;;1.63;1.30;;;;;;;19.20;75.43;100291.53;5052926;28;20041;-61
2023/07/14 07:08:13;;;;;;;3.38;1.80;;;;;;;19.32;74.48;100298.88;5054100;28;20074;-61
2023/07/14 07:10:43;;;;;;;3.60;1.35;;;;;;;19.34;72.19;100292.16;5052632;28;20044;-62
2023/07/14 07:13:10;;;;;;;2.78;1.33;;;;;;;19.50;72.87;100296.09;5052866;28;20482;-62
2023/07/14 07:15:36;;;;;;;4.97;1.88;;;;;;;19.55;71.47;100287.28;5053003;28;20425;-62
2023/07/14 07:18:01;;;;;;;2.70;1.60;;;;;;;19.70;70.90;100291.25;5051434;28;20035;-61
2023/07/14 07:20:26;;;;;;;4.22;1.60;;;;;;;19.85;69.57;100289.97;5052186;28;20533;-60
2023/07/14 07:22:52;;;;;;;3.00;1.70;;;;;;;19.93;70.53;100292.34;5052616;28;20043;-61
2023/07/14 07:25:17;;;;;;;2.38;1.38;;;;;;;19.99;68.38;100288.69;5052539;28;20062;-61
2023/07/14 07:27:43;;;;;;;3.40;1.70;;;;;;;20.07;68.53;100285.63;5051430;28;20045;-60
2023/07/14 07:30:09;;;;;;;2.17;1.30;;;;;;;20.15;69.72;100282.59;5064086;28;20047;-59
2023/07/14 07:32:36;;;;;;;3.08;1.50;;;;;;;20.29;69.13;100286.72;5072440;28;20036;-58
2023/07/14 07:35:03;;;;;;;4.43;1.77;;;;;;;20.48;66.85;100282.03;5060215;28;20036;-61
2023/07/14 07:37:32;;;;;;;2.57;1.70;;;;;;;20.55;68.42;100276.50;5052301;28;20319;-60
2023/07/14 07:39:58;;;;;;;3.50;1.95;;;;;;;20.65;67.30;100263.16;5051804;28;20068;-60
2023/07/14 07:42:24;;;;;;;5.97;2.08;;;;;;;20.77;65.58;100257.72;5052077;28;20044;-61
2023/07/14 07:44:49;;;;;;;3.13;1.88;;;;;;;20.91;66.98;100255.56;5052254;28;20087;-62
2023/07/14 07:47:15;;;;;;;2.65;1.95;;;;;;;21.01;67.36;100263.88;5055235;28;20048;-62
2023/07/14 07:49:41;;;;;;;2.88;1.80;;;;;;;21.06;63.91;100245.84;5071082;28;20067;-62
2023/07/14 07:52:07;;;;;;;2.83;1.70;;;;;;;21.24;63.31;100249.41;5071926;28;20037;-60
2023/07/14 07:54:33;;;;;;;2.63;1.80;;;;;;;21.39;64.93;100242.44;5072285;28;20066;-61
2023/07/14 07:56:58;;;;;;;4.07;1.80;;;;;;;21.63;62.91;100251.22;5071710;28;20048;-62
2023/07/14 07:59:24;;;;;;;2.08;1.60;;;;;;;21.84;61.13;100249.69;5071829;28;20082;-61
2023/07/14 08:01:49;;;;;;;3.63;2.17;;;;;;;21.98;59.39;100235.78;5070956;28;20135;-61
2023/07/14 08:04:16;;;;;;;3.30;1.90;;;;;;;22.16;59.32;100238.22;5071997;28;20412;-62
2023/07/14 08:06:42;;;;;;;4.88;2.25;;;;;;;22.33;58.34;100232.78;5071941;28;20042;-61
2023/07/14 08:09:09;;;;;;;2.83;1.65;;;;;;;22.41;57.98;100227.72;5069425;28;20116;-61
2023/07/14 08:11:35;;;;;;;3.40;1.63;;;;;;;22.47;57.15;100224.00;5071938;28;20477;-61
2023/07/14 08:14:02;;;;;;;3.22;1.77;;;;;;;22.70;57.18;100222.13;5072199;28;20047;-62
2023/07/14 08:16:31;;;;;;;6.90;2.38;;;;;;;22.86;54.91;100212.25;5071959;28;20635;-62
2023/07/14 08:18:57;;;;;;;5.97;2.25;;;;;;;22.87;56.50;100220.16;5071028;28;20512;-62
2023/07/14 08:21:22;;;;;;;5.05;2.15;;;;;;;22.98;54.88;100219.19;5071769;28;20032;-62
2023/07/14 08:23:48;;;;;;;2.90;2.00;;;;;;;23.04;55.19;100219.25;5071936;28;20489;-52
2023/07/14 08:26:14;;;;;;;4.97;1.90;;;;;;;23.17;56.05;100221.56;5071769;28;20460;-52
2023/07/14 08:28:39;;;;;;;5.45;1.95;;;;;;;23.23;55.39;100215.09;5071472;28;20123;-51
2023/07/14 08:31:08;;;;;;;5.10;2.10;;;;;;;23.32;55.43;100212.72;5066206;28;20078;-52
2023/07/14 08:33:35;;;;;;;4.00;1.98;;;;;;;23.43;55.40;100215.28;5060499;28;20041;-56
2023/07/14 08:36:01;;;;;;;3.47;2.20;;;;;;;23.51;55.01;100216.69;5061136;28;20124;-55
2023/07/14 08:38:31;;;;;;;3.60;2.33;;;;;;;23.66;54.63;100221.47;5062084;28;20033;-55
2023/07/14 08:41:09;;;;;;;6.03;2.30;;;;;;;23.76;54.21;100214.22;5060965;28;20607;-55
2023/07/14 08:44:12;;;;;;;5.05;2.20;;;;;;;23.96;56.23;100223.59;5060552;28;20379;-54
2023/07/14 08:47:03;;;;;;;4.40;2.45;;;;;;;24.06;56.80;100223.66;5060962;28;20027;-52
2023/07/14 08:49:36;;;;;;;3.47;2.00;;;;;;;24.19;54.61;100220.50;5060772;28;20029;-54
2023/07/14 08:52:04;;;;;;;3.50;2.10;;;;;;;24.49;51.72;100208.13;5061368;28;20051;-53
2023/07/14 08:54:51;;;;;;;5.65;2.40;;;;;;;24.44;53.93;100217.09;5060657;28;20033;-55
2023/07/14 08:57:21;;;;;;;3.38;1.98;;;;;;;24.55;54.10;100210.59;5061105;28;20039;-55
2023/07/14 08:59:48;;;;;;;3.67;2.28;;;;;;;24.59;51.81;100213.63;5061830;28;20055;-60
2023/07/14 09:02:38;;;;;;;2.92;2.15;;;;;;;24.66;51.70;100213.38;5060333;28;20021;-58
2023/07/14 09:05:25;;;;;;;5.97;2.33;;;;;;;24.72;52.59;100202.25;5054868;28;20082;-61
2023/07/14 09:07:51;;;;;;;4.55;2.35;;;;;;;24.98;53.99;100202.31;5063374;28;20031;-61
2023/07/14 09:10:18;;;;;;;3.43;2.30;;;;;;;25.15;49.56;100206.44;5064052;28;20102;-60
2023/07/14 09:12:55;;;;;;;5.00;2.58;;;;;;;25.23;50.81;100201.53;5064222;28;20361;-60
2023/07/14 09:15:25;;;;;;;5.68;2.67;;;;;;;25.34;48.31;100195.00;5071091;28;20064;-59
2023/07/14 09:18:02;;;;;;;6.22;2.63;;;;;;;25.47;49.79;100186.28;5065706;28;20119;-59
2023/07/14 09:20:39;;;;;;;5.00;2.30;;;;;;;25.55;49.59;100193.09;5062488;28;20028;-58
2023/07/14 09:23:39;;;;;;;5.75;2.55;;;;;;;25.54;49.60;100188.72;5054955;28;20041;-60
2023/07/14 09:26:10;;;;;;;3.50;2.17;;;;;;;25.58;47.95;100189.84;5055099;28;20500;-60
2023/07/14 09:28:38;;;;;;;5.18;2.40;;;;;;;25.79;48.01;100193.38;5054629;28;20039;-60
2023/07/14 09:31:15;;;;;;;6.00;2.55;;;;;;;25.74;45.30;100187.94;5054783;28;20844;-60
2023/07/14 09:33:50;;;;;;;4.55;2.33;;;;;;;25.78;46.05;100186.28;5054956;28;20501;-59
2023/07/14 09:36:18;;;;;;;4.82;1.98;;;;;;;25.87;43.74;100187.38;5054655;28;20368;-61
2023/07/14 09:38:48;;;;;;;5.22;3.13;;;;;;;26.10;44.95;100177.78;5054560;28;20036;-60
2023/07/14 09:41:16;;;;;;;3.83;2.00;;;;;;;26.17;46.13;100181.03;5054733;28;20097;-59
2023/07/14 09:43:43;;;;;;;3.35;2.03;;;;;;;26.19;44.79;100174.19;5054619;28;20444;-60
2023/07/14 09:46:13;;;;;;;6.13;2.80;;;;;;;26.25;43.74;100166.78;5054513;28;20159;-59
2023/07/14 09:48:47;;;;;;;2.83;2.00;;;;;;;26.36;42.71;100171.13;5054236;28;20068;-58
2023/07/14 09:51:20;;;;;;;4.05;2.08;;;;;;;26.37;42.63;100164.56;5054409;28;20543;-60
2023/07/14 09:53:56;;;;;;;2.70;1.95;;;;;;;26.35;41.75;100163.22;5054529;28;20074;-60
2023/07/14 09:56:27;;;;;;;4.53;1.98;;;;;;;26.40;40.21;100161.28;5054411;28;20086;-59
2023/07/14 09:58:58;;;;;;;5.13;2.05;;;;;;;26.28;37.91;100152.59;5054086;28;20075;-59
2023/07/14 10:01:23;;;;;;;5.45;2.30;;;;;;;26.45;38.86;100161.28;5054351;28;20116;-60
2023/07/14 10:03:56;;;;;;;10.70;2.47;;;;;;;26.69;37.16;100166.88;5054365;28;20509;-57
2023/07/14 10:06:26;;;;;;;4.32;2.10;;;;;;;26.72;38.30;100171.78;5054098;28;20037;-57
2023/07/14 10:09:13;;;;;;;3.25;2.00;;;;;;;26.97;38.08;100173.53;5054047;28;20041;-60
2023/07/14 10:11:40;;;;;;;;;;;;;;;27.00;37.58;100166.72;5054550;28;20535;-61
2023/07/14 10:14:35;;;;;;;8.73;2.80;;;;;;;27.05;41.05;100180.34;5054100;28;20362;-57
2023/07/14 10:17:02;;;;;;;6.85;2.60;;;;;;;26.98;40.10;100177.91;5053825;28;20040;-61
2023/07/14 10:19:38;;;;;;;4.15;2.33;;;;;;;26.96;38.71;100169.19;5053522;28;20087;-59
2023/07/14 10:22:17;;;;;;;6.28;2.75;;;;;;;27.06;39.77;100171.06;5053916;28;20037;-60
2023/07/14 10:24:47;;;;;;;3.67;2.10;;;;;;;27.14;39.08;100161.44;5053956;28;20040;-60
2023/07/14 10:27:19;;;;;;;5.65;2.50;;;;;;;27.35;38.92;100167.56;5053797;28;20046;-59
2023/07/14 10:29:50;;;;;;;3.95;2.10;;;;;;;27.55;35.90;100150.97;5053530;28;20045;-60
2023/07/14 10:32:34;;;;;;;3.45;1.77;;;;;;;27.79;34.57;100140.91;5053548;28;20039;-59
2023/07/14 10:35:15;;;;;;;4.22;2.17;;;;;;;27.85;35.54;100139.75;5053614;28;20091;-58
2023/07/14 10:37:46;;;;;;;4.15;1.88;;;;;;;27.85;35.85;100133.47;5053611;28;20040;-61
2023/07/14 10:40:19;;;;;;;6.43;2.15;;;;;;;27.83;35.03;100136.47;5053382;28;20052;-57
2023/07/14 10:43:16;;;;;;;4.07;2.25;;;;;;;27.45;34.40;100132.75;5053511;28;20060;-58
2023/07/14 10:45:46;;;;;;;4.43;1.92;;;;;;;27.60;35.78;100131.78;5053405;28;20033;-61
2023/07/14 10:48:24;;;;;;;3.88;2.25;;;;;;;27.99;36.61;100131.66;5053338;28;20512;-60
2023/07/14 10:50:57;;;;;;;5.85;2.28;;;;;;;28.07;35.80;100130.19;5053138;28;20060;-59
2023/07/14 10:53:31;;;;;;;2.97;2.03;;;;;;;28.03;34.67;100140.09;5053378;28;20045;-58
2023/07/14 10:56:00;;;;;;;5.50;2.08;;;;;;;28.38;36.41;100141.63;5053193;28;20037;-61
2023/07/14 10:58:46;;;;;;;3.15;1.70;;;;;;;28.54;34.63;100134.00;5052799;28;20037;-59
2023/07/14 11:01:18;;;;;;;3.08;1.65;;;;;;;28.71;32.92;100134.31;5053100;28;20029;-62
2023/07/14 11:04:27;;;;;;;4.75;2.17;;;;;;;29.44;34.61;100124.66;5053172;28;20448;-61
2023/07/14 11:06:55;;;;;;;3.60;1.85;;;;;;;29.74;34.42;100123.31;5024489;28;20387;-56
2023/07/14 11:09:20;;;;;;;3.42;2.05;;;;;;;29.64;32.24;100118.81;5052694;28;20040;-55
2023/07/14 11:12:05;;;;;;;3.78;1.85;;;;;;;29.68;32.61;100108.06;5052811;28;20039;-63
2023/07/14 11:14:40;;;;;;;5.07;2.17;;;;;;;29.59;32.51;100118.09;5057542;28;20040;-64
2023/07/14 11:17:29;;;;;;;3.60;2.03;;;;;;;29.52;34.37;100114.94;5062006;28;20382;-62
2023/07/14 11:20:24;;;;;;;3.90;2.45;;;;;;;29.31;34.72;100106.25;5057758;28;20029;-62
2023/07/14 11:22:52;;;;;;;2.92;1.75;;;;;;;29.67;34.92;100115.50;5039337;28;20048;-61
2023/07/14 11:25:30;;;;;;;3.95;2.35;;;;;;;29.30;33.99;100099.13;5052549;28;20021;-63
2023/07/14 11:28:25;;;;;;;4.28;2.22;;;;;;;29.18;34.25;100105.09;5052726;28;20045;-63
2023/07/14 11:30:56;;;;;;;4.23;2.00;;;;;;;29.10;34.47;100103.03;5026089;28;20660;-64
2023/07/14 11:33:41;;;;;;;2.45;1.88;;;;;;;29.03;34.62;100094.38;5052636;28;20029;-64
2023/07/14 11:36:15;;;;;;;4.88;2.25;;;;;;;29.29;34.63;100089.28;5052640;28;20037;-64
2023/07/14 11:39:11;;;;;;;3.03;2.10;;;;;;;29.18;32.52;100075.72;5052325;28;20108;-65
2023/07/14 11:41:37;;;;;;;2.88;1.88;;;;;;;29.33;34.51;100077.38;5052621;28;20108;-64
2023/07/14 11:44:05;;;;;;;3.88;2.20;;;;;;;29.12;33.28;100076.94;5052424;28;20540;-64
2023/07/14 11:46:32;;;;;;;4.15;2.40;;;;;;;29.40;33.72;100075.06;5061073;28;20431;-65
2023/07/14 11:48:57;;;;;;;2.30;1.60;;;;;;;29.43;34.23;100068.16;5060613;28;20038;-64
2023/07/14 11:51:46;;;;;;;2.22;1.58;;;;;;;29.22;32.53;100065.00;5061156;28;20037;-64
2023/07/14 11:54:17;;;;;;;4.68;2.25;;;;;;;29.14;33.50;100063.72;5061173;28;20492;-63
2023/07/14 11:56:57;;;;;;;2.67;1.75;;;;;;;29.02;32.74;100062.59;5061345;28;20041;-63
2023/07/14 11:59:26;;;;;;;3.00;1.90;;;;;;;29.14;33.83;100054.69;5062071;28;20040;-62
2023/07/14 12:01:55;;;;;;;3.95;2.00;;;;;;;29.32;33.07;100056.56;5060703;28;20088;-64
2023/07/14 12:04:23;;;;;;;2.22;1.70;;;;;;;29.21;33.11;100052.38;5061726;28;20404;-64
2023/07/14 12:07:28;;;;;;;2.22;1.60;;;;;;;29.56;33.05;100050.94;5062611;28;20033;-63
2023/07/14 12:10:14;;;;;;;3.47;1.70;;;;;;;29.91;32.30;100048.56;5060140;28;20044;-62
2023/07/14 12:12:41;;;;;;;4.43;1.70;;;;;;;30.27;31.97;100041.22;5062403;28;20124;-63
2023/07/14 12:15:46;;;;;;;3.60;2.10;;;;;;;30.53;30.49;100037.91;5062424;28;20102;-63
2023/07/14 12:18:48;;;;;;;1.83;1.50;;;;;;;30.87;29.57;100045.63;5058709;28;20044;-63
2023/07/14 12:21:14;;;;;;;3.47;2.00;;;;;;;30.99;29.05;100043.09;5060567;28;20132;-61
2023/07/14 12:23:40;;;;;;;3.30;1.67;;;;;;;30.40;30.31;100030.53;5061026;28;20434;-63
2023/07/14 12:26:14;;;;;;;4.35;2.25;;;;;;;30.55;28.97;100027.41;5062023;28;20123;-63
2023/07/14 12:28:40;;;;;;;4.80;1.83;;;;;;;31.42;30.06;100017.78;5060502;28;20486;-62
2023/07/14 12:31:16;;;;;;;2.97;1.83;;;;;;;31.89;29.88;100018.13;5060106;28;20041;-62
2023/07/14 12:33:42;;;;;;;2.20;1.83;;;;;;;32.24;30.61;100020.94;5061846;28;20043;-62
2023/07/14 12:36:18;;;;;;;4.45;1.60;;;;;;;32.27;29.09;100012.81;5060124;28;20436;-60
2023/07/14 12:38:49;;;;;;;3.08;1.92;;;;;;;32.14;28.69;100011.03;5050492;28;20478;-62
2023/07/14 12:41:16;;;;;;;3.22;1.92;;;;;;;32.06;27.70;100004.38;5051135;28;20121;-61
2023/07/14 12:43:55;;;;;;;3.65;1.90;;;;;;;31.93;29.22;100005.31;5053815;28;20041;-62
2023/07/14 12:46:27;;;;;;;2.22;1.65;;;;;;;32.33;28.30;99996.97;5055736;28;20090;-62
2023/07/14 12:49:12;;;;;;;2.22;1.70;;;;;;;32.17;27.68;99993.06;5055509;28;20040;-63
2023/07/14 12:51:38;;;;;;;5.23;1.50;;;;;;;32.62;26.68;99980.56;5055552;28;20032;-63
2023/07/14 12:54:06;;;;;;;2.63;1.80;;;;;;;33.11;26.29;99983.88;5055619;28;20516;-64
2023/07/14 12:56:33;;;;;;;2.63;1.77;;;;;;;33.34;26.06;99970.63;5059298;28;20051;-62
2023/07/14 12:58:59;;;;;;;2.40;1.63;;;;;;;33.69;24.27;99970.47;5075163;28;20041;-63
2023/07/14 13:01:25;;;;;;;;;;;;;;;33.52;25.09;99962.28;5075807;28;20032;-61
2023/07/14 13:03:51;;;;;;;1.67;1.50;;;;;;;33.46;25.22;99956.97;5064528;28;20422;-62
2023/07/14 13:06:18;;;;;;;2.45;1.70;;;;;;;33.22;24.99;99948.47;5046154;28;20025;-62
2023/07/14 13:08:49;;;;;;;3.20;1.70;;;;;;;32.88;25.22;99949.41;5074940;28;20048;-62
2023/07/14 13:11:22;;;;;;;2.80;1.85;;;;;;;32.86;25.02;99943.34;5075066;28;20084;-63
2023/07/14 13:13:56;;;;;;;3.72;2.30;;;;;;;32.21;25.47;99942.47;5075124;28;20394;-63
2023/07/14 13:16:33;;;;;;;5.03;1.80;;;;;;;32.25;26.05;99928.88;5075071;28;20444;-63
2023/07/14 13:18:59;;;;;;;3.08;1.65;;;;;;;32.56;27.11;99926.75;5074774;28;20036;-63
2023/07/14 13:21:41;;;;;;;2.53;1.73;;;;;;;31.66;26.20;99907.28;5074910;28;20119;-62
2023/07/14 13:24:15;;;;;;;2.70;1.98;;;;;;;31.40;28.43;99912.72;5064695;28;20037;-65
2023/07/14 13:26:54;;;;;;;2.80;1.83;;;;;;;31.02;28.77;99904.16;5064383;28;20146;-63
2023/07/14 13:29:27;;;;;;;4.50;1.67;;;;;;;30.91;30.20;99898.16;5063348;28;20041;-62
2023/07/14 13:31:59;;;;;;;2.30;1.58;;;;;;;30.98;29.47;99887.50;5064676;28;20093;-60
2023/07/14 13:34:32;;;;;;;2.15;1.40;;;;;;;30.86;30.01;99895.53;5031721;28;20033;-62
2023/07/14 13:37:04;;;;;;;3.08;1.70;;;;;;;30.86;29.63;99890.03;5053416;28;20041;-62
2023/07/14 13:39:36;;;;;;;2.75;1.65;;;;;;;30.51;28.60;99891.75;5054545;28;20529;-59
2023/07/14 13:42:04;;;;;;;2.60;1.70;;;;;;;30.47;31.18;99888.84;5054598;28;20397;-60
2023/07/14 13:44:42;;;;;;;3.35;2.00;;;;;;;30.09;30.45;99873.84;5053541;28;20043;-64
2023/07/14 13:47:22;;;;;;;3.28;1.60;;;;;;;29.91;30.46;99865.47;5054569;28;20041;-61
2023/07/14 13:49:49;;;;;;;1.90;1.52;;;;;;;29.90;30.79;99865.78;5054238;28;20454;-64
2023/07/14 13:52:18;;;;;;;;;;;;;;;29.96;31.34;99867.28;5054812;28;20516;-62
2023/07/14 13:54:53;;;;;;;3.72;1.60;;;;;;;29.84;30.52;99859.59;5053977;28;19922;-64
2023/07/14 13:57:18;;;;;;;4.60;2.00;;;;;;;29.93;31.29;99855.00;5054273;28;20094;-63
2023/07/14 13:59:45;;;;;;;4.28;1.92;;;;;;;29.84;30.58;99851.34;5054095;28;20041;-63
2023/07/14 14:02:42;;;;;;;2.97;2.03;;;;;;;29.80;32.02;99847.63;5054420;28;20052;-63
2023/07/14 14:05:36;;;;;;;4.25;1.88;;;;;;;29.78;31.07;99838.06;5053458;28;20458;-63
2023/07/14 14:08:04;;;;;;;3.13;1.70;;;;;;;29.87;30.99;99839.78;5050501;28;20049;-63
2023/07/14 14:10:30;;;;;;;2.85;1.80;;;;;;;29.92;30.87;99839.63;5053706;28;20033;-63
2023/07/14 14:12:59;;;;;;;4.20;1.80;;;;;;;29.62;30.56;99835.69;5054052;28;20033;-63
2023/07/14 14:15:44;;;;;;;2.63;1.70;;;;;;;29.52;31.69;99824.94;5053875;28;20072;-63
2023/07/14 14:18:21;;;;;;;3.40;1.90;;;;;;;29.50;30.80;99818.91;5053985;28;20064;-63
2023/07/14 14:20:48;;;;;;;4.00;1.98;;;;;;;29.44;31.70;99814.66;5053814;28;20037;-64
2023/07/14 14:23:17;;;;;;;2.30;1.70;;;;;;;29.59;33.40;99813.53;5053842;28;20056;-64
2023/07/14 14:25:43;;;;;;;2.67;1.75;;;;;;;29.69;32.06;99814.13;5053620;28;20044;-64
2023/07/14 14:28:08;;;;;;;3.97;1.60;;;;;;;29.71;31.86;99811.84;5053794;28;20029;-63
2023/07/14 14:30:40;;;;;;;2.33;1.70;;;;;;;29.68;31.83;99798.78;5053249;28;20550;-63
2023/07/14 14:33:10;;;;;;;3.13;2.30;;;;;;;29.61;32.39;99794.84;5053631;28;20033;-64
2023/07/14 14:35:36;;;;;;;2.40;1.80;;;;;;;29.67;31.72;99791.66;5053721;28;20033;-65
2023/07/14 14:38:14;;;;;;;2.60;1.90;;;;;;;29.73;31.98;99790.44;5053569;28;20044;-62
2023/07/14 14:40:40;;;;;;;2.72;1.65;;;;;;;29.76;31.66;99778.00;5053276;28;20486;-64
2023/07/14 14:43:28;;;;;;;1.83;1.50;;;;;;;29.90;30.82;99778.75;5053592;28;20038;-64
2023/07/14 14:45:55;;;;;;;3.03;1.90;;;;;;;29.51;30.63;99764.88;5053456;28;20394;-64
2023/07/14 14:48:24;;;;;;;2.30;1.85;;;;;;;29.54;31.57;99761.50;5053139;28;20116;-64
2023/07/14 14:50:51;;;;;;;2.30;1.90;;;;;;;29.44;31.45;99760.63;5053126;28;20029;-64
2023/07/14 14:53:37;;;;;;;2.35;1.75;;;;;;;29.48;31.81;99757.25;5053323;28;20043;-64
2023/07/14 14:56:25;;;;;;;2.20;1.80;;;;;;;29.45;31.57;99751.25;5053257;28;20044;-63
2023/07/14 14:58:55;;;;;;;3.08;1.95;;;;;;;29.46;31.27;99738.34;5052866;28;20460;-63
2023/07/14 15:01:33;;;;;;;2.78;1.70;;;;;;;29.55;31.46;99735.72;5053104;28;20044;-63
2023/07/14 15:03:59;;;;;;;3.05;1.98;;;;;;;29.52;31.83;99734.41;5052995;28;20029;-63
2023/07/14 15:06:25;;;;;;;3.28;2.00;;;;;;;29.45;30.69;99729.31;5051835;28;20056;-63
2023/07/14 15:08:51;;;;;;;3.35;1.95;;;;;;;29.44;30.95;99730.44;5052739;28;20111;-63
2023/07/14 15:11:18;;;;;;;2.75;1.83;;;;;;;29.56;31.13;99731.84;5052810;28;20044;-64
2023/07/14 15:13:45;;;;;;;2.60;1.75;;;;;;;29.55;31.63;99722.00;5052642;28;20467;-64
2023/07/14 15:16:11;;;;;;;4.25;2.10;;;;;;;29.60;31.71;99730.91;5052911;28;20056;-64
2023/07/14 15:18:37;;;;;;;5.18;1.88;;;;;;;29.75;30.93;99717.94;5052412;28;20037;-63
2023/07/14 15:21:13;;;;;;;3.45;1.95;;;;;;;29.82;31.16;99713.63;5052782;28;20278;-63
2023/07/14 15:23:38;;;;;;;2.97;2.20;;;;;;;29.68;30.71;99712.91;5052653;28;20083;-64
2023/07/14 15:26:05;;;;;;;2.75;2.20;;;;;;;29.75;31.52;99709.72;5052480;28;20068;-64
2023/07/14 15:28:30;;;;;;;2.23;1.70;;;;;;;29.74;30.95;99708.91;5052424;28;20040;-64
2023/07/14 15:30:55;;;;;;;6.53;2.17;;;;;;;29.77;32.16;99702.78;5052701;28;20394;-62
2023/07/14 15:33:23;;;;;;;2.33;1.63;;;;;;;29.78;31.20;99700.84;5052554;28;20517;-63
2023/07/14 15:35:50;;;;;;;2.65;1.95;;;;;;;29.68;30.99;99696.44;5052063;28;20434;-63
2023/07/14 15:38:16;;;;;;;3.50;1.83;;;;;;;29.71;32.07;99696.59;5052273;28;20509;-62
2023/07/14 15:40:47;;;;;;;3.92;2.22;;;;;;;29.96;31.33;99689.63;5052233;28;20044;-62
2023/07/14 15:43:28;;;;;;;7.90;2.13;;;;;;;29.81;30.68;99681.81;5052551;28;20445;-62
2023/07/14 15:45:57;;;;;;;2.70;2.00;;;;;;;29.83;32.31;99684.25;5052274;28;20032;-62
2023/07/14 15:48:28;;;;;;;5.85;2.15;;;;;;;29.80;32.90;99680.22;5052104;28;20114;-63
2023/07/14 15:50:55;;;;;;;3.03;2.10;;;;;;;29.80;32.19;99671.13;5052200;28;20048;-63
2023/07/14 15:53:23;;;;;;;10.93;4.55;;;;;;;29.86;31.84;99670.69;5051007;28;20135;-63
2023/07/14 15:55:49;;;;;;;8.35;2.97;;;;;;;29.84;31.95;99681.19;5051940;28;20128;-64
2023/07/14 15:58:18;;;;;;;7.57;3.43;;;;;;;29.81;32.30;99679.06;5051963;28;20486;-62
2023/07/14 16:00:43;;;;;;;2.88;1.98;;;;;;;29.79;32.36;99670.31;5051667;28;20041;-62
2023/07/14 16:03:09;;;;;;;4.22;2.05;;;;;;;29.75;32.32;99661.13;5050585;28;20183;-63
2023/07/14 16:05:36;;;;;;;2.75;1.85;;;;;;;29.74;32.01;99659.50;5049838;28;20044;-63